sensor_id;sensor_type;location;lat;lon;timestamp;P1;P2;P0
31330;PMS5003;34067;39.548;-76.088;2022-12-07T00:01:18;3;3;
31330;PMS5003;34067;39.548;-76.088;2022-12-07T00:03:48;3;3;
31330;PMS5003;34067;39.548;-76.088;2022-12-07T00:06:18;3;3;
31330;PMS5003;34067;39.548;-76.088;2022-12-07T00:08:47;4;4;
31330;PMS5003;34067;39.548;-76.088;2022-12-07T00:11:17;4;4;
31330;PMS5003;34067;39.548;-76.088;2022-12-07T00:13:47;5;5;
31330;PMS5003;34067;39.548;-76.088;2022-12-07T00:16:19;6;4;
31330;PMS5003;34067;39.548;-76.088;2022-12-07T00:18:51;5;4;
31330;PMS5003;34067;39.548;-76.088;2022-12-07T00:21:20;6;6;
31330;PMS5003;34067;39.548;-76.088;2022-12-07T00:23:50;6;6;
31330;PMS5003;34067;39.548;-76.088;2022-12-07T00:26:19;5;5;
31330;PMS5003;34067;39.548;-76.088;2022-12-07T00:28:49;5;4;
31330;PMS5003;34067;39.548;-76.088;2022-12-07T00:31:19;5;4;
31330;PMS5003;34067;39.548;-76.088;2022-12-07T00:33:48;3;3;
31330;PMS5003;34067;39.548;-76.088;2022-12-07T00:36:18;4;4;
31330;PMS5003;34067;39.548;-76.088;2022-12-07T00:38:47;5;4;
31330;PMS5003;34067;39.548;-76.088;2022-12-07T00:41:16;5;5;
31330;PMS5003;34067;39.548;-76.088;2022-12-07T00:43:45;4;3;
31330;PMS5003;34067;39.548;-76.088;2022-12-07T00:46:15;4;4;
31330;PMS5003;34067;39.548;-76.088;2022-12-07T00:48:44;5;4;
31330;PMS5003;34067;39.548;-76.088;2022-12-07T00:51:12;6;5;
31330;PMS5003;34067;39.548;-76.088;2022-12-07T00:53:42;3;3;
31330;PMS5003;34067;39.548;-76.088;2022-12-07T00:56:11;7;5;
31330;PMS5003;34067;39.548;-76.088;2022-12-07T00:58:42;5;5;
31330;PMS5003;34067;39.548;-76.088;2022-12-07T01:01:10;6;5;
31330;PMS5003;34067;39.548;-76.088;2022-12-07T01:03:38;7;7;
31330;PMS5003;34067;39.548;-76.088;2022-12-07T01:06:06;6;5;
31330;PMS5003;34067;39.548;-76.088;2022-12-07T01:08:34;5;5;
31330;PMS5003;34067;39.548;-76.088;2022-12-07T01:11:03;7;6;
31330;PMS5003;34067;39.548;-76.088;2022-12-07T01:13:33;7;7;
31330;PMS5003;34067;39.548;-76.088;2022-12-07T01:16:03;7;6;
31330;PMS5003;34067;39.548;-76.088;2022-12-07T01:18:33;8;5;
31330;PMS5003;34067;39.548;-76.088;2022-12-07T01:18:34;8;5;
31330;PMS5003;34067;39.548;-76.088;2022-12-07T01:21:03;5;5;
31330;PMS5003;34067;39.548;-76.088;2022-12-07T01:23:33;7;6;
31330;PMS5003;34067;39.548;-76.088;2022-12-07T01:26:04;8;8;
31330;PMS5003;34067;39.548;-76.088;2022-12-07T01:28:33;7;6;
31330;PMS5003;34067;39.548;-76.088;2022-12-07T01:31:02;10;9;
31330;PMS5003;34067;39.548;-76.088;2022-12-07T01:33:32;5;4;
31330;PMS5003;34067;39.548;-76.088;2022-12-07T01:36:02;6;6;
31330;PMS5003;34067;39.548;-76.088;2022-12-07T01:38:30;7;7;
31330;PMS5003;34067;39.548;-76.088;2022-12-07T01:41:00;6;6;
31330;PMS5003;34067;39.548;-76.088;2022-12-07T01:43:29;7;7;
31330;PMS5003;34067;39.548;-76.088;2022-12-07T01:45:59;10;8;
31330;PMS5003;34067;39.548;-76.088;2022-12-07T01:48:30;9;7;
31330;PMS5003;34067;39.548;-76.088;2022-12-07T01:51:04;12;12;
31330;PMS5003;34067;39.548;-76.088;2022-12-07T01:53:37;6;6;
31330;PMS5003;34067;39.548;-76.088;2022-12-07T01:56:09;8;7;
31330;PMS5003;34067;39.548;-76.088;2022-12-07T01:58:42;8;6;
31330;PMS5003;34067;39.548;-76.088;2022-12-07T02:01:11;6;5;
31330;PMS5003;34067;39.548;-76.088;2022-12-07T02:03:41;6;6;
31330;PMS5003;34067;39.548;-76.088;2022-12-07T02:06:11;6;6;
31330;PMS5003;34067;39.548;-76.088;2022-12-07T02:08:43;6;6;
31330;PMS5003;34067;39.548;-76.088;2022-12-07T02:11:12;5;5;
31330;PMS5003;34067;39.548;-76.088;2022-12-07T02:13:40;7;6;
31330;PMS5003;34067;39.548;-76.088;2022-12-07T02:16:12;6;5;
31330;PMS5003;34067;39.548;-76.088;2022-12-07T02:18:54;4;4;
31330;PMS5003;34067;39.548;-76.088;2022-12-07T02:21:33;4;4;
31330;PMS5003;34067;39.548;-76.088;2022-12-07T02:24:15;7;6;
31330;PMS5003;34067;39.548;-76.088;2022-12-07T02:27:05;7;6;
31330;PMS5003;34067;39.548;-76.088;2022-12-07T02:29:48;7;6;
31330;PMS5003;34067;39.548;-76.088;2022-12-07T02:32:22;6;6;
31330;PMS5003;34067;39.548;-76.088;2022-12-07T02:34:55;5;5;
31330;PMS5003;34067;39.548;-76.088;2022-12-07T02:37:33;7;6;
31330;PMS5003;34067;39.548;-76.088;2022-12-07T02:40:07;9;9;
31330;PMS5003;34067;39.548;-76.088;2022-12-07T02:42:42;8;7;
31330;PMS5003;34067;39.548;-76.088;2022-12-07T02:45:17;8;8;
31330;PMS5003;34067;39.548;-76.088;2022-12-07T02:47:50;9;9;
31330;PMS5003;34067;39.548;-76.088;2022-12-07T02:50:21;8;8;
31330;PMS5003;34067;39.548;-76.088;2022-12-07T02:52:50;8;8;
31330;PMS5003;34067;39.548;-76.088;2022-12-07T02:55:18;8;6;
31330;PMS5003;34067;39.548;-76.088;2022-12-07T02:57:59;6;5;
31330;PMS5003;34067;39.548;-76.088;2022-12-07T03:00:47;6;6;
31330;PMS5003;34067;39.548;-76.088;2022-12-07T03:03:21;10;8;
31330;PMS5003;34067;39.548;-76.088;2022-12-07T03:05:55;7;7;
31330;PMS5003;34067;39.548;-76.088;2022-12-07T03:08:38;7;7;
31330;PMS5003;34067;39.548;-76.088;2022-12-07T03:11:15;7;7;
31330;PMS5003;34067;39.548;-76.088;2022-12-07T03:13:52;9;7;
31330;PMS5003;34067;39.548;-76.088;2022-12-07T03:16:28;7;6;
31330;PMS5003;34067;39.548;-76.088;2022-12-07T03:19:01;7;6;
31330;PMS5003;34067;39.548;-76.088;2022-12-07T03:21:37;9;7;
31330;PMS5003;34067;39.548;-76.088;2022-12-07T03:24:09;8;7;
31330;PMS5003;34067;39.548;-76.088;2022-12-07T03:26:41;8;8;
31330;PMS5003;34067;39.548;-76.088;2022-12-07T03:29:19;7;6;
31330;PMS5003;34067;39.548;-76.088;2022-12-07T03:31:52;9;9;
31330;PMS5003;34067;39.548;-76.088;2022-12-07T03:34:27;8;7;
31330;PMS5003;34067;39.548;-76.088;2022-12-07T03:37:02;10;10;
31330;PMS5003;34067;39.548;-76.088;2022-12-07T03:39:37;8;7;
31330;PMS5003;34067;39.548;-76.088;2022-12-07T03:42:12;5;5;
31330;PMS5003;34067;39.548;-76.088;2022-12-07T03:44:41;10;7;
31330;PMS5003;34067;39.548;-76.088;2022-12-07T03:47:11;10;10;
31330;PMS5003;34067;39.548;-76.088;2022-12-07T03:49:45;10;8;
31330;PMS5003;34067;39.548;-76.088;2022-12-07T03:52:18;10;10;
31330;PMS5003;34067;39.548;-76.088;2022-12-07T03:54:55;7;7;
31330;PMS5003;34067;39.548;-76.088;2022-12-07T03:57:27;9;8;
31330;PMS5003;34067;39.548;-76.088;2022-12-07T03:59:58;5;5;
31330;PMS5003;34067;39.548;-76.088;2022-12-07T04:02:27;4;4;
31330;PMS5003;34067;39.548;-76.088;2022-12-07T04:04:56;7;5;
31330;PMS5003;34067;39.548;-76.088;2022-12-07T04:07:24;4;3;
31330;PMS5003;34067;39.548;-76.088;2022-12-07T04:09:52;5;3;
31330;PMS5003;34067;39.548;-76.088;2022-12-07T04:12:21;6;6;
31330;PMS5003;34067;39.548;-76.088;2022-12-07T04:14:50;7;5;
31330;PMS5003;34067;39.548;-76.088;2022-12-07T04:17:19;5;5;
31330;PMS5003;34067;39.548;-76.088;2022-12-07T04:19:47;7;7;
31330;PMS5003;34067;39.548;-76.088;2022-12-07T04:22:15;5;5;
31330;PMS5003;34067;39.548;-76.088;2022-12-07T04:24:43;6;4;
31330;PMS5003;34067;39.548;-76.088;2022-12-07T04:27:11;5;4;
31330;PMS5003;34067;39.548;-76.088;2022-12-07T04:29:40;6;5;
31330;PMS5003;34067;39.548;-76.088;2022-12-07T04:32:08;4;4;
31330;PMS5003;34067;39.548;-76.088;2022-12-07T04:34:36;5;5;
31330;PMS5003;34067;39.548;-76.088;2022-12-07T04:37:04;7;6;
31330;PMS5003;34067;39.548;-76.088;2022-12-07T04:39:33;5;5;
31330;PMS5003;34067;39.548;-76.088;2022-12-07T04:42:01;9;7;
31330;PMS5003;34067;39.548;-76.088;2022-12-07T04:44:29;5;5;
31330;PMS5003;34067;39.548;-76.088;2022-12-07T04:46:57;6;6;
31330;PMS5003;34067;39.548;-76.088;2022-12-07T04:49:25;5;5;
31330;PMS5003;34067;39.548;-76.088;2022-12-07T04:51:53;6;6;
31330;PMS5003;34067;39.548;-76.088;2022-12-07T04:54:21;5;5;
31330;PMS5003;34067;39.548;-76.088;2022-12-07T04:56:49;4;3;
31330;PMS5003;34067;39.548;-76.088;2022-12-07T04:59:18;6;5;
31330;PMS5003;34067;39.548;-76.088;2022-12-07T05:01:46;5;5;
31330;PMS5003;34067;39.548;-76.088;2022-12-07T05:04:14;5;4;
31330;PMS5003;34067;39.548;-76.088;2022-12-07T05:06:42;5;5;
31330;PMS5003;34067;39.548;-76.088;2022-12-07T05:09:10;3;3;
31330;PMS5003;34067;39.548;-76.088;2022-12-07T05:11:38;5;5;
31330;PMS5003;34067;39.548;-76.088;2022-12-07T05:14:08;5;4;
31330;PMS5003;34067;39.548;-76.088;2022-12-07T05:16:39;4;4;
31330;PMS5003;34067;39.548;-76.088;2022-12-07T05:19:08;5;5;
31330;PMS5003;34067;39.548;-76.088;2022-12-07T05:21:36;5;4;
31330;PMS5003;34067;39.548;-76.088;2022-12-07T05:24:05;6;4;
31330;PMS5003;34067;39.548;-76.088;2022-12-07T05:26:35;8;6;
31330;PMS5003;34067;39.548;-76.088;2022-12-07T05:29:03;5;5;
31330;PMS5003;34067;39.548;-76.088;2022-12-07T05:31:31;5;5;
31330;PMS5003;34067;39.548;-76.088;2022-12-07T05:33:59;7;7;
31330;PMS5003;34067;39.548;-76.088;2022-12-07T05:36:27;5;5;
31330;PMS5003;34067;39.548;-76.088;2022-12-07T05:38:56;3;3;
31330;PMS5003;34067;39.548;-76.088;2022-12-07T05:41:24;7;6;
31330;PMS5003;34067;39.548;-76.088;2022-12-07T05:43:52;9;8;
31330;PMS5003;34067;39.548;-76.088;2022-12-07T05:46:21;9;7;
31330;PMS5003;34067;39.548;-76.088;2022-12-07T05:48:49;5;5;
31330;PMS5003;34067;39.548;-76.088;2022-12-07T05:51:17;5;5;
31330;PMS5003;34067;39.548;-76.088;2022-12-07T05:53:45;5;5;
31330;PMS5003;34067;39.548;-76.088;2022-12-07T05:56:13;2;2;
31330;PMS5003;34067;39.548;-76.088;2022-12-07T05:58:41;2;2;
31330;PMS5003;34067;39.548;-76.088;2022-12-07T06:03:08;3;3;
31330;PMS5003;34067;39.548;-76.088;2022-12-07T06:05:36;2;2;
31330;PMS5003;34067;39.548;-76.088;2022-12-07T06:08:04;3;3;
31330;PMS5003;34067;39.548;-76.088;2022-12-07T06:10:33;5;4;
31330;PMS5003;34067;39.548;-76.088;2022-12-07T06:13:01;3;3;
31330;PMS5003;34067;39.548;-76.088;2022-12-07T06:15:29;4;4;
31330;PMS5003;34067;39.548;-76.088;2022-12-07T06:17:57;4;4;
31330;PMS5003;34067;39.548;-76.088;2022-12-07T06:20:25;4;4;
31330;PMS5003;34067;39.548;-76.088;2022-12-07T06:22:53;4;3;
31330;PMS5003;34067;39.548;-76.088;2022-12-07T06:25:22;4;3;
31330;PMS5003;34067;39.548;-76.088;2022-12-07T06:27:50;5;5;
31330;PMS5003;34067;39.548;-76.088;2022-12-07T06:30:18;5;5;
31330;PMS5003;34067;39.548;-76.088;2022-12-07T06:32:46;7;7;
31330;PMS5003;34067;39.548;-76.088;2022-12-07T06:35:14;4;4;
31330;PMS5003;34067;39.548;-76.088;2022-12-07T06:37:42;4;4;
31330;PMS5003;34067;39.548;-76.088;2022-12-07T06:40:11;6;5;
31330;PMS5003;34067;39.548;-76.088;2022-12-07T06:42:39;4;4;
31330;PMS5003;34067;39.548;-76.088;2022-12-07T06:45:07;5;4;
31330;PMS5003;34067;39.548;-76.088;2022-12-07T06:47:35;4;4;
31330;PMS5003;34067;39.548;-76.088;2022-12-07T06:50:03;5;5;
31330;PMS5003;34067;39.548;-76.088;2022-12-07T06:52:32;8;6;
31330;PMS5003;34067;39.548;-76.088;2022-12-07T06:55:00;6;5;
31330;PMS5003;34067;39.548;-76.088;2022-12-07T06:57:28;6;6;
31330;PMS5003;34067;39.548;-76.088;2022-12-07T06:59:56;5;5;
31330;PMS5003;34067;39.548;-76.088;2022-12-07T07:02:24;6;5;
31330;PMS5003;34067;39.548;-76.088;2022-12-07T07:04:53;8;7;
31330;PMS5003;34067;39.548;-76.088;2022-12-07T07:07:21;5;5;
31330;PMS5003;34067;39.548;-76.088;2022-12-07T07:09:49;6;6;
31330;PMS5003;34067;39.548;-76.088;2022-12-07T07:12:17;8;8;
31330;PMS5003;34067;39.548;-76.088;2022-12-07T07:14:46;9;8;
31330;PMS5003;34067;39.548;-76.088;2022-12-07T07:17:14;8;7;
31330;PMS5003;34067;39.548;-76.088;2022-12-07T07:19:42;11;9;
31330;PMS5003;34067;39.548;-76.088;2022-12-07T07:22:10;5;5;
31330;PMS5003;34067;39.548;-76.088;2022-12-07T07:24:39;10;10;
31330;PMS5003;34067;39.548;-76.088;2022-12-07T07:27:07;6;6;
31330;PMS5003;34067;39.548;-76.088;2022-12-07T07:29:35;6;5;
31330;PMS5003;34067;39.548;-76.088;2022-12-07T07:32:03;8;7;
31330;PMS5003;34067;39.548;-76.088;2022-12-07T07:34:31;7;7;
31330;PMS5003;34067;39.548;-76.088;2022-12-07T07:36:59;9;7;
31330;PMS5003;34067;39.548;-76.088;2022-12-07T07:39:27;7;7;
31330;PMS5003;34067;39.548;-76.088;2022-12-07T07:41:55;9;9;
31330;PMS5003;34067;39.548;-76.088;2022-12-07T07:44:23;8;7;
31330;PMS5003;34067;39.548;-76.088;2022-12-07T07:46:51;9;8;
31330;PMS5003;34067;39.548;-76.088;2022-12-07T07:49:19;7;7;
31330;PMS5003;34067;39.548;-76.088;2022-12-07T07:51:47;9;7;
31330;PMS5003;34067;39.548;-76.088;2022-12-07T07:54:15;10;8;
31330;PMS5003;34067;39.548;-76.088;2022-12-07T07:56:43;8;7;
31330;PMS5003;34067;39.548;-76.088;2022-12-07T07:59:12;9;9;
31330;PMS5003;34067;39.548;-76.088;2022-12-07T08:01:41;7;7;
31330;PMS5003;34067;39.548;-76.088;2022-12-07T08:04:09;8;8;
31330;PMS5003;34067;39.548;-76.088;2022-12-07T08:06:37;7;7;
31330;PMS5003;34067;39.548;-76.088;2022-12-07T08:09:05;9;9;
31330;PMS5003;34067;39.548;-76.088;2022-12-07T08:11:33;8;8;
31330;PMS5003;34067;39.548;-76.088;2022-12-07T08:14:01;7;7;
31330;PMS5003;34067;39.548;-76.088;2022-12-07T08:16:29;6;6;
31330;PMS5003;34067;39.548;-76.088;2022-12-07T08:18:57;6;5;
31330;PMS5003;34067;39.548;-76.088;2022-12-07T08:21:26;6;6;
31330;PMS5003;34067;39.548;-76.088;2022-12-07T08:23:54;8;7;
31330;PMS5003;34067;39.548;-76.088;2022-12-07T08:26:23;9;7;
31330;PMS5003;34067;39.548;-76.088;2022-12-07T08:28:52;6;6;
31330;PMS5003;34067;39.548;-76.088;2022-12-07T08:31:20;9;9;
31330;PMS5003;34067;39.548;-76.088;2022-12-07T08:33:49;9;9;
31330;PMS5003;34067;39.548;-76.088;2022-12-07T08:36:17;8;7;
31330;PMS5003;34067;39.548;-76.088;2022-12-07T08:38:45;9;7;
31330;PMS5003;34067;39.548;-76.088;2022-12-07T08:41:13;10;7;
31330;PMS5003;34067;39.548;-76.088;2022-12-07T08:43:41;9;8;
31330;PMS5003;34067;39.548;-76.088;2022-12-07T08:46:11;8;8;
31330;PMS5003;34067;39.548;-76.088;2022-12-07T08:48:46;10;9;
31330;PMS5003;34067;39.548;-76.088;2022-12-07T08:51:16;8;7;
31330;PMS5003;34067;39.548;-76.088;2022-12-07T08:53:44;8;8;
31330;PMS5003;34067;39.548;-76.088;2022-12-07T08:56:12;7;7;
31330;PMS5003;34067;39.548;-76.088;2022-12-07T08:58:41;7;6;
31330;PMS5003;34067;39.548;-76.088;2022-12-07T09:01:10;10;9;
31330;PMS5003;34067;39.548;-76.088;2022-12-07T09:03:38;10;10;
31330;PMS5003;34067;39.548;-76.088;2022-12-07T09:06:06;11;10;
31330;PMS5003;34067;39.548;-76.088;2022-12-07T09:08:34;7;7;
31330;PMS5003;34067;39.548;-76.088;2022-12-07T09:11:08;10;9;
31330;PMS5003;34067;39.548;-76.088;2022-12-07T09:13:36;9;8;
31330;PMS5003;34067;39.548;-76.088;2022-12-07T09:16:04;8;7;
31330;PMS5003;34067;39.548;-76.088;2022-12-07T09:18:33;10;9;
31330;PMS5003;34067;39.548;-76.088;2022-12-07T09:21:00;16;14;
31330;PMS5003;34067;39.548;-76.088;2022-12-07T09:23:28;8;8;
31330;PMS5003;34067;39.548;-76.088;2022-12-07T09:25:59;11;9;
31330;PMS5003;34067;39.548;-76.088;2022-12-07T09:28:27;15;13;
31330;PMS5003;34067;39.548;-76.088;2022-12-07T09:30:57;11;11;
31330;PMS5003;34067;39.548;-76.088;2022-12-07T09:33:24;12;11;
31330;PMS5003;34067;39.548;-76.088;2022-12-07T09:35:52;10;10;
31330;PMS5003;34067;39.548;-76.088;2022-12-07T09:38:21;12;11;
31330;PMS5003;34067;39.548;-76.088;2022-12-07T09:40:49;15;13;
31330;PMS5003;34067;39.548;-76.088;2022-12-07T09:43:18;14;12;
31330;PMS5003;34067;39.548;-76.088;2022-12-07T09:45:47;15;13;
31330;PMS5003;34067;39.548;-76.088;2022-12-07T09:48:18;11;9;
31330;PMS5003;34067;39.548;-76.088;2022-12-07T09:50:47;13;11;
31330;PMS5003;34067;39.548;-76.088;2022-12-07T09:53:18;12;10;
31330;PMS5003;34067;39.548;-76.088;2022-12-07T09:55:51;12;11;
31330;PMS5003;34067;39.548;-76.088;2022-12-07T09:58:21;12;11;
31330;PMS5003;34067;39.548;-76.088;2022-12-07T10:00:52;12;11;
31330;PMS5003;34067;39.548;-76.088;2022-12-07T10:03:23;21;14;
31330;PMS5003;34067;39.548;-76.088;2022-12-07T10:05:53;13;10;
31330;PMS5003;34067;39.548;-76.088;2022-12-07T10:08:21;12;11;
31330;PMS5003;34067;39.548;-76.088;2022-12-07T10:10:51;14;12;
31330;PMS5003;34067;39.548;-76.088;2022-12-07T10:13:20;19;13;
31330;PMS5003;34067;39.548;-76.088;2022-12-07T10:15:50;12;10;
31330;PMS5003;34067;39.548;-76.088;2022-12-07T10:18:25;16;14;
31330;PMS5003;34067;39.548;-76.088;2022-12-07T10:21:03;15;14;
31330;PMS5003;34067;39.548;-76.088;2022-12-07T10:23:37;21;19;
31330;PMS5003;34067;39.548;-76.088;2022-12-07T10:26:37;22;17;
31330;PMS5003;34067;39.548;-76.088;2022-12-07T10:29:15;21;16;
31330;PMS5003;34067;39.548;-76.088;2022-12-07T10:31:47;19;17;
31330;PMS5003;34067;39.548;-76.088;2022-12-07T10:34:21;19;16;
31330;PMS5003;34067;39.548;-76.088;2022-12-07T10:36:51;22;17;
31330;PMS5003;34067;39.548;-76.088;2022-12-07T10:39:21;12;10;
31330;PMS5003;34067;39.548;-76.088;2022-12-07T10:41:54;19;17;
31330;PMS5003;34067;39.548;-76.088;2022-12-07T10:44:24;17;14;
31330;PMS5003;34067;39.548;-76.088;2022-12-07T10:46:58;13;12;
31330;PMS5003;34067;39.548;-76.088;2022-12-07T10:50:41;17;15;
31330;PMS5003;34067;39.548;-76.088;2022-12-07T10:53:24;15;13;
31330;PMS5003;34067;39.548;-76.088;2022-12-07T10:56:10;18;16;
31330;PMS5003;34067;39.548;-76.088;2022-12-07T10:58:55;17;16;
31330;PMS5003;34067;39.548;-76.088;2022-12-07T11:01:37;15;15;
31330;PMS5003;34067;39.548;-76.088;2022-12-07T11:04:15;15;13;
31330;PMS5003;34067;39.548;-76.088;2022-12-07T11:06:53;11;10;
31330;PMS5003;34067;39.548;-76.088;2022-12-07T11:09:34;14;13;
31330;PMS5003;34067;39.548;-76.088;2022-12-07T11:12:19;15;12;
31330;PMS5003;34067;39.548;-76.088;2022-12-07T11:15:00;16;14;
31330;PMS5003;34067;39.548;-76.088;2022-12-07T11:17:36;13;13;
31330;PMS5003;34067;39.548;-76.088;2022-12-07T11:20:14;17;13;
31330;PMS5003;34067;39.548;-76.088;2022-12-07T11:22:57;15;14;
31330;PMS5003;34067;39.548;-76.088;2022-12-07T11:25:42;17;14;
31330;PMS5003;34067;39.548;-76.088;2022-12-07T11:28:20;18;17;
31330;PMS5003;34067;39.548;-76.088;2022-12-07T11:31:05;16;15;
31330;PMS5003;34067;39.548;-76.088;2022-12-07T11:33:46;13;12;
31330;PMS5003;34067;39.548;-76.088;2022-12-07T11:36:26;16;12;
31330;PMS5003;34067;39.548;-76.088;2022-12-07T11:39:04;13;11;
31330;PMS5003;34067;39.548;-76.088;2022-12-07T11:41:41;13;11;
31330;PMS5003;34067;39.548;-76.088;2022-12-07T11:44:17;13;13;
31330;PMS5003;34067;39.548;-76.088;2022-12-07T11:46:58;46;40;
31330;PMS5003;34067;39.548;-76.088;2022-12-07T11:49:37;26;25;
31330;PMS5003;34067;39.548;-76.088;2022-12-07T11:52:13;14;14;
31330;PMS5003;34067;39.548;-76.088;2022-12-07T11:54:49;15;13;
31330;PMS5003;34067;39.548;-76.088;2022-12-07T11:57:22;17;15;
31330;PMS5003;34067;39.548;-76.088;2022-12-07T11:59:59;11;11;
31330;PMS5003;34067;39.548;-76.088;2022-12-07T12:02:32;17;15;
31330;PMS5003;34067;39.548;-76.088;2022-12-07T12:05:07;14;13;
31330;PMS5003;34067;39.548;-76.088;2022-12-07T12:07:43;16;14;
31330;PMS5003;34067;39.548;-76.088;2022-12-07T12:10:16;12;10;
31330;PMS5003;34067;39.548;-76.088;2022-12-07T12:12:55;14;13;
31330;PMS5003;34067;39.548;-76.088;2022-12-07T12:15:18;14;13;
31330;PMS5003;34067;39.548;-76.088;2022-12-07T12:18:00;13;11;
31330;PMS5003;34067;39.548;-76.088;2022-12-07T12:20:40;12;11;
31330;PMS5003;34067;39.548;-76.088;2022-12-07T12:23:15;13;12;
31330;PMS5003;34067;39.548;-76.088;2022-12-07T12:25:48;11;10;
31330;PMS5003;34067;39.548;-76.088;2022-12-07T12:28:20;13;13;
31330;PMS5003;34067;39.548;-76.088;2022-12-07T12:31:06;17;16;
31330;PMS5003;34067;39.548;-76.088;2022-12-07T12:33:43;13;12;
31330;PMS5003;34067;39.548;-76.088;2022-12-07T12:36:17;14;12;
31330;PMS5003;34067;39.548;-76.088;2022-12-07T12:38:50;17;13;
31330;PMS5003;34067;39.548;-76.088;2022-12-07T12:41:51;14;13;
31330;PMS5003;34067;39.548;-76.088;2022-12-07T12:44:38;20;14;
31330;PMS5003;34067;39.548;-76.088;2022-12-07T12:47:39;14;13;
31330;PMS5003;34067;39.548;-76.088;2022-12-07T12:50:16;20;16;
31330;PMS5003;34067;39.548;-76.088;2022-12-07T12:52:48;17;14;
31330;PMS5003;34067;39.548;-76.088;2022-12-07T12:55:22;21;13;
31330;PMS5003;34067;39.548;-76.088;2022-12-07T12:58:49;23;17;
31330;PMS5003;34067;39.548;-76.088;2022-12-07T13:01:54;16;11;
31330;PMS5003;34067;39.548;-76.088;2022-12-07T13:04:55;12;9;
31330;PMS5003;34067;39.548;-76.088;2022-12-07T13:07:58;14;12;
31330;PMS5003;34067;39.548;-76.088;2022-12-07T13:10:33;18;15;
31330;PMS5003;34067;39.548;-76.088;2022-12-07T13:13:08;18;13;
31330;PMS5003;34067;39.548;-76.088;2022-12-07T13:16:49;23;17;
31330;PMS5003;34067;39.548;-76.088;2022-12-07T13:19:55;20;14;
31330;PMS5003;34067;39.548;-76.088;2022-12-07T13:22:47;17;13;
31330;PMS5003;34067;39.548;-76.088;2022-12-07T13:25:21;19;15;
31330;PMS5003;34067;39.548;-76.088;2022-12-07T13:27:58;22;15;
31330;PMS5003;34067;39.548;-76.088;2022-12-07T13:30:39;19;17;
31330;PMS5003;34067;39.548;-76.088;2022-12-07T13:33:13;19;16;
31330;PMS5003;34067;39.548;-76.088;2022-12-07T13:35:44;19;16;
31330;PMS5003;34067;39.548;-76.088;2022-12-07T13:38:19;15;14;
31330;PMS5003;34067;39.548;-76.088;2022-12-07T13:41:14;14;13;
31330;PMS5003;34067;39.548;-76.088;2022-12-07T13:43:45;17;14;
31330;PMS5003;34067;39.548;-76.088;2022-12-07T13:46:15;22;19;
31330;PMS5003;34067;39.548;-76.088;2022-12-07T13:48:49;18;16;
31330;PMS5003;34067;39.548;-76.088;2022-12-07T13:51:19;19;17;
31330;PMS5003;34067;39.548;-76.088;2022-12-07T13:53:51;22;20;
31330;PMS5003;34067;39.548;-76.088;2022-12-07T13:56:21;15;13;
31330;PMS5003;34067;39.548;-76.088;2022-12-07T13:58:54;16;15;
31330;PMS5003;34067;39.548;-76.088;2022-12-07T14:01:22;12;11;
31330;PMS5003;34067;39.548;-76.088;2022-12-07T14:03:51;17;16;
31330;PMS5003;34067;39.548;-76.088;2022-12-07T14:06:21;21;15;
31330;PMS5003;34067;39.548;-76.088;2022-12-07T14:09:06;19;16;
31330;PMS5003;34067;39.548;-76.088;2022-12-07T14:11:34;19;16;
31330;PMS5003;34067;39.548;-76.088;2022-12-07T14:14:04;15;15;
31330;PMS5003;34067;39.548;-76.088;2022-12-07T14:16:33;15;14;
31330;PMS5003;34067;39.548;-76.088;2022-12-07T14:19:04;15;14;
31330;PMS5003;34067;39.548;-76.088;2022-12-07T14:22:07;14;13;
31330;PMS5003;34067;39.548;-76.088;2022-12-07T14:24:41;11;11;
31330;PMS5003;34067;39.548;-76.088;2022-12-07T14:27:16;13;12;
31330;PMS5003;34067;39.548;-76.088;2022-12-07T14:29:45;15;14;
31330;PMS5003;34067;39.548;-76.088;2022-12-07T14:32:18;17;15;
31330;PMS5003;34067;39.548;-76.088;2022-12-07T14:34:57;15;15;
31330;PMS5003;34067;39.548;-76.088;2022-12-07T14:37:27;17;16;
31330;PMS5003;34067;39.548;-76.088;2022-12-07T14:39:56;11;11;
31330;PMS5003;34067;39.548;-76.088;2022-12-07T14:42:24;15;14;
31330;PMS5003;34067;39.548;-76.088;2022-12-07T14:44:55;18;16;
31330;PMS5003;34067;39.548;-76.088;2022-12-07T14:47:24;15;14;
31330;PMS5003;34067;39.548;-76.088;2022-12-07T14:49:53;11;10;
31330;PMS5003;34067;39.548;-76.088;2022-12-07T14:52:21;12;11;
31330;PMS5003;34067;39.548;-76.088;2022-12-07T14:54:51;12;10;
31330;PMS5003;34067;39.548;-76.088;2022-12-07T14:57:19;11;11;
31330;PMS5003;34067;39.548;-76.088;2022-12-07T14:59:47;15;13;
31330;PMS5003;34067;39.548;-76.088;2022-12-07T15:02:16;12;11;
31330;PMS5003;34067;39.548;-76.088;2022-12-07T15:04:44;14;10;
31330;PMS5003;34067;39.548;-76.088;2022-12-07T15:07:15;11;10;
31330;PMS5003;34067;39.548;-76.088;2022-12-07T15:09:45;13;11;
31330;PMS5003;34067;39.548;-76.088;2022-12-07T15:12:14;14;11;
31330;PMS5003;34067;39.548;-76.088;2022-12-07T15:14:42;16;16;
31330;PMS5003;34067;39.548;-76.088;2022-12-07T15:17:10;16;13;
31330;PMS5003;34067;39.548;-76.088;2022-12-07T15:19:38;17;16;
31330;PMS5003;34067;39.548;-76.088;2022-12-07T15:22:07;16;15;
31330;PMS5003;34067;39.548;-76.088;2022-12-07T15:24:35;14;13;
31330;PMS5003;34067;39.548;-76.088;2022-12-07T15:27:03;16;16;
31330;PMS5003;34067;39.548;-76.088;2022-12-07T15:29:31;14;12;
31330;PMS5003;34067;39.548;-76.088;2022-12-07T15:31:59;19;17;
31330;PMS5003;34067;39.548;-76.088;2022-12-07T15:34:27;12;11;
31330;PMS5003;34067;39.548;-76.088;2022-12-07T15:36:55;17;16;
31330;PMS5003;34067;39.548;-76.088;2022-12-07T15:39:23;18;14;
31330;PMS5003;34067;39.548;-76.088;2022-12-07T15:41:51;14;14;
31330;PMS5003;34067;39.548;-76.088;2022-12-07T15:44:19;14;14;
31330;PMS5003;34067;39.548;-76.088;2022-12-07T15:46:46;14;14;
31330;PMS5003;34067;39.548;-76.088;2022-12-07T15:49:15;19;17;
31330;PMS5003;34067;39.548;-76.088;2022-12-07T15:51:45;16;14;
31330;PMS5003;34067;39.548;-76.088;2022-12-07T15:54:14;21;18;
31330;PMS5003;34067;39.548;-76.088;2022-12-07T15:56:44;17;17;
31330;PMS5003;34067;39.548;-76.088;2022-12-07T15:59:13;18;17;
31330;PMS5003;34067;39.548;-76.088;2022-12-07T16:01:42;20;17;
31330;PMS5003;34067;39.548;-76.088;2022-12-07T16:04:09;19;15;
31330;PMS5003;34067;39.548;-76.088;2022-12-07T16:06:38;21;20;
31330;PMS5003;34067;39.548;-76.088;2022-12-07T16:09:06;20;16;
31330;PMS5003;34067;39.548;-76.088;2022-12-07T16:11:35;18;17;
31330;PMS5003;34067;39.548;-76.088;2022-12-07T16:14:03;20;17;
31330;PMS5003;34067;39.548;-76.088;2022-12-07T16:16:31;25;20;
31330;PMS5003;34067;39.548;-76.088;2022-12-07T16:18:59;22;18;
31330;PMS5003;34067;39.548;-76.088;2022-12-07T16:21:27;28;25;
31330;PMS5003;34067;39.548;-76.088;2022-12-07T16:23:57;28;25;
31330;PMS5003;34067;39.548;-76.088;2022-12-07T16:26:25;27;24;
31330;PMS5003;34067;39.548;-76.088;2022-12-07T16:28:53;24;23;
31330;PMS5003;34067;39.548;-76.088;2022-12-07T16:31:22;27;26;
31330;PMS5003;34067;39.548;-76.088;2022-12-07T16:33:52;29;24;
31330;PMS5003;34067;39.548;-76.088;2022-12-07T16:36:21;28;27;